createdAt,value
2023-03-27T00:00:07.233Z,29.42
2023-03-27T00:04:07.390Z,29.46
2023-03-27T00:08:07.580Z,29.46
2023-03-27T00:12:07.762Z,29.47
2023-03-27T00:16:07.962Z,29.43
2023-03-27T00:20:08.125Z,29.42
2023-03-27T00:24:08.279Z,29.41
2023-03-27T00:28:08.510Z,29.42
2023-03-27T00:32:08.614Z,29.43
2023-03-27T00:36:08.823Z,29.43
2023-03-27T00:40:09.111Z,29.44
2023-03-27T00:44:09.159Z,29.43
2023-03-27T00:48:09.320Z,29.45
2023-03-27T00:52:09.491Z,29.46
2023-03-27T00:56:09.673Z,29.45
2023-03-27T01:00:09.999Z,29.42
2023-03-27T01:04:10.016Z,29.44
2023-03-27T01:08:10.182Z,29.40
2023-03-27T01:12:10.478Z,29.44
2023-03-27T01:16:10.528Z,29.41
2023-03-27T01:20:10.609Z,29.47
2023-03-27T01:24:10.620Z,29.47
2023-03-27T01:28:10.718Z,29.45
2023-03-27T01:32:10.749Z,29.46
2023-03-27T01:36:10.789Z,29.44
2023-03-27T01:40:10.896Z,29.43
2023-03-27T01:44:10.993Z,29.45
2023-03-27T01:48:11.189Z,29.44
2023-03-27T01:52:11.397Z,29.46
2023-03-27T01:56:11.508Z,29.46
2023-03-27T02:00:17.472Z,29.46
2023-03-27T02:04:12.640Z,29.43
2023-03-27T02:08:11.640Z,29.47
2023-03-27T02:12:11.698Z,29.47
2023-03-27T02:16:11.942Z,29.47
2023-03-27T02:20:12.127Z,29.43
2023-03-27T02:24:12.332Z,29.47
2023-03-27T02:28:12.527Z,29.45
2023-03-27T02:32:12.753Z,29.46
2023-03-27T02:36:12.941Z,29.47
2023-03-27T02:40:13.105Z,29.44
2023-03-27T02:44:13.265Z,29.45
2023-03-27T02:48:13.509Z,29.48
2023-03-27T02:52:13.627Z,29.43
2023-03-27T02:56:13.799Z,29.44
2023-03-27T03:00:14.037Z,29.44
2023-03-27T03:04:14.281Z,29.46
2023-03-27T03:08:14.390Z,29.47
2023-03-27T03:12:14.551Z,29.49
2023-03-27T03:16:14.759Z,29.48
2023-03-27T03:20:14.956Z,29.45
2023-03-27T03:24:15.239Z,29.48
2023-03-27T03:28:15.308Z,29.47
2023-03-27T03:32:15.518Z,29.47
2023-03-27T03:36:15.687Z,29.46
2023-03-27T03:40:15.875Z,29.44
2023-03-27T03:44:16.088Z,29.45
2023-03-27T03:48:16.296Z,29.46
2023-03-27T03:52:16.454Z,29.46
2023-03-27T03:56:16.625Z,29.46
2023-03-27T04:00:16.916Z,29.43
2023-03-27T04:04:17.055Z,29.42
2023-03-27T04:08:17.275Z,29.39
2023-03-27T04:12:17.442Z,29.43
2023-03-27T04:16:17.673Z,29.42
2023-03-27T04:20:17.906Z,29.37
2023-03-27T04:24:18.078Z,29.42
2023-03-27T04:28:18.241Z,29.43
2023-03-27T04:32:18.468Z,29.43
2023-03-27T04:36:18.694Z,29.40
2023-03-27T04:40:18.906Z,29.42
2023-03-27T04:44:19.073Z,29.41
2023-03-27T04:48:19.055Z,29.41
2023-03-27T04:52:19.016Z,29.37
2023-03-27T04:56:18.973Z,29.36
2023-03-27T05:00:19.044Z,29.37
2023-03-27T05:04:18.940Z,29.35
2023-03-27T05:08:18.873Z,29.36
2023-03-27T05:12:18.816Z,29.37
2023-03-27T05:16:18.885Z,29.35
2023-03-27T05:20:18.782Z,29.37
2023-03-27T05:24:18.726Z,29.38
2023-03-27T05:28:18.682Z,29.37
2023-03-27T05:32:18.843Z,29.36
2023-03-27T05:36:19.073Z,29.36
2023-03-27T05:40:19.240Z,30.65
2023-03-27T05:44:19.588Z,31.47
2023-03-27T05:48:19.595Z,31.25
2023-03-27T05:52:20.137Z,32.38
2023-03-27T05:56:19.894Z,33.67
2023-03-27T06:00:20.089Z,31.48
2023-03-27T06:04:20.098Z,34.25
2023-03-27T06:08:20.637Z,34.75
2023-03-27T06:12:20.393Z,35.21
2023-03-27T06:16:20.645Z,36.08
2023-03-27T06:20:21.098Z,36.17
2023-03-27T06:24:20.719Z,36.78
2023-03-27T06:28:20.669Z,36.78
2023-03-27T06:32:20.824Z,34.18
2023-03-27T06:36:21.175Z,33.23
2023-03-27T06:40:20.966Z,32.27
2023-03-27T06:44:21.172Z,33.20
2023-03-27T06:48:22.532Z,34.19
2023-03-27T06:52:21.651Z,34.53
2023-03-27T06:56:21.658Z,35.00
2023-03-27T07:00:21.537Z,35.25
2023-03-27T07:04:21.685Z,35.57
2023-03-27T07:08:24.073Z,35.73
2023-03-27T07:12:21.407Z,36.08
2023-03-27T07:16:21.465Z,36.46
2023-03-27T07:20:21.719Z,36.63
2023-03-27T07:24:21.322Z,36.96
2023-03-27T07:28:21.646Z,37.16
2023-03-27T07:32:34.119Z,37.71
2023-03-27T07:36:22.649Z,38.10
2023-03-27T07:40:29.340Z,38.39
2023-03-27T07:44:22.674Z,38.32
2023-03-27T07:48:21.286Z,38.31
2023-03-27T07:52:21.665Z,39.98
2023-03-27T07:56:21.671Z,39.97
2023-03-27T08:00:21.507Z,39.54
2023-03-27T08:04:21.767Z,39.45
2023-03-27T08:08:21.613Z,39.94
2023-03-27T08:12:21.668Z,40.12
2023-03-27T08:16:21.746Z,39.67
2023-03-27T08:20:21.710Z,39.84
2023-03-27T08:24:21.685Z,39.99
2023-03-27T08:28:21.642Z,39.89
2023-03-27T08:32:22.217Z,39.68
2023-03-27T08:36:22.224Z,40.10
2023-03-27T08:40:22.187Z,39.21
2023-03-27T08:44:21.945Z,39.12
2023-03-27T08:48:22.264Z,29.09
2023-03-27T08:52:22.186Z,29.90
2023-03-27T08:56:22.198Z,29.42
2023-03-27T09:00:22.030Z,28.35
2023-03-27T09:04:22.221Z,27.72
2023-03-27T09:08:21.998Z,27.87
2023-03-27T09:12:21.974Z,29.32
2023-03-27T09:16:22.225Z,30.19
2023-03-27T09:20:21.874Z,30.36
2023-03-27T09:24:22.207Z,30.44
2023-03-27T09:28:21.951Z,30.64
2023-03-27T09:32:22.203Z,30.89
2023-03-27T09:36:21.721Z,31.09
2023-03-27T09:40:22.243Z,31.40
2023-03-27T09:44:21.721Z,31.55
2023-03-27T09:48:21.707Z,29.72
2023-03-27T09:52:21.550Z,31.43
2023-03-27T09:56:21.577Z,31.59
2023-03-27T10:00:21.750Z,27.22
2023-03-27T10:04:21.584Z,28.21
2023-03-27T10:08:21.616Z,27.57
2023-03-27T10:12:22.211Z,27.69
2023-03-27T10:16:22.265Z,27.36
2023-03-27T10:20:21.857Z,27.97
2023-03-27T10:24:21.829Z,26.52
2023-03-27T10:28:21.829Z,27.55
2023-03-27T10:32:21.773Z,27.65
2023-03-27T10:36:21.765Z,28.19
2023-03-27T10:40:21.849Z,29.13
2023-03-27T10:44:21.731Z,28.96
2023-03-27T10:48:21.768Z,29.80
2023-03-27T10:52:21.606Z,30.49
2023-03-27T10:56:21.724Z,31.15
2023-03-27T11:00:21.523Z,31.28
2023-03-27T11:04:21.799Z,32.08
2023-03-27T11:08:21.427Z,32.50
2023-03-27T11:12:21.778Z,32.26
2023-03-27T11:16:21.528Z,32.39
2023-03-27T11:20:21.479Z,32.80
2023-03-27T11:24:21.730Z,33.14
2023-03-27T11:28:21.399Z,33.33
2023-03-27T11:32:22.119Z,33.39
2023-03-27T11:36:21.306Z,32.88
2023-03-27T11:40:21.291Z,32.55
2023-03-27T11:44:21.229Z,32.06
2023-03-27T11:48:21.210Z,31.80
2023-03-27T11:52:21.145Z,31.38
2023-03-27T11:56:21.269Z,31.27
2023-03-27T12:00:21.097Z,31.07
2023-03-27T12:04:21.114Z,30.86
2023-03-27T12:08:21.250Z,30.81
2023-03-27T12:12:20.983Z,30.57
2023-03-27T12:16:21.306Z,30.46
2023-03-27T12:20:21.084Z,30.30
2023-03-27T12:24:21.325Z,29.84
2023-03-27T12:28:22.378Z,29.55
2023-03-27T12:32:21.521Z,29.58
2023-03-27T12:36:21.640Z,29.24
2023-03-27T12:40:21.776Z,28.74
2023-03-27T12:44:21.942Z,28.78
2023-03-27T12:48:22.084Z,28.44
2023-03-27T12:52:22.223Z,28.42
2023-03-27T12:56:22.524Z,28.25
2023-03-27T13:00:22.609Z,28.18
2023-03-27T13:04:22.816Z,28.03
2023-03-27T13:08:22.957Z,27.87
2023-03-27T13:12:23.148Z,27.76
2023-03-27T13:16:23.398Z,27.50
2023-03-27T13:20:23.570Z,27.28
2023-03-27T13:24:23.752Z,27.41
2023-03-27T13:28:24.021Z,27.05
2023-03-27T13:32:23.884Z,25.13
2023-03-27T13:36:23.921Z,25.44
2023-03-27T13:40:23.793Z,26.25
2023-03-27T13:44:23.777Z,25.86
2023-03-27T13:48:23.733Z,24.27
2023-03-27T13:52:23.731Z,23.76
2023-03-27T13:56:23.666Z,24.09
2023-03-27T14:00:23.619Z,24.23
2023-03-27T14:04:23.602Z,23.38
2023-03-27T14:08:23.546Z,23.26
2023-03-27T14:12:23.885Z,22.75
2023-03-27T14:16:23.601Z,22.52
2023-03-27T14:20:23.823Z,22.06
2023-03-27T14:24:23.443Z,21.91
2023-03-27T14:28:23.395Z,21.60
2023-03-27T14:32:23.312Z,21.15
2023-03-27T14:36:23.367Z,21.02
2023-03-27T14:40:23.821Z,20.96
2023-03-27T14:44:23.465Z,20.92
2023-03-27T14:48:23.430Z,21.19
2023-03-27T14:52:23.462Z,21.35
2023-03-27T14:56:23.627Z,22.05
2023-03-27T15:00:23.589Z,22.16
2023-03-27T15:04:23.539Z,23.11
2023-03-27T15:08:23.499Z,22.35
2023-03-27T15:12:23.450Z,22.42
2023-03-27T15:16:23.484Z,22.53
2023-03-27T15:20:23.459Z,22.77
2023-03-27T15:24:23.397Z,22.88
2023-03-27T15:28:23.347Z,22.94
2023-03-27T15:32:23.288Z,23.02
2023-03-27T15:36:23.285Z,23.08
2023-03-27T15:40:23.224Z,23.29
2023-03-27T15:44:23.173Z,22.99
2023-03-27T15:48:23.224Z,23.08
2023-03-27T15:52:23.097Z,23.12
2023-03-27T15:56:23.084Z,23.16
2023-03-27T16:00:23.045Z,23.50
2023-03-27T16:04:23.083Z,23.73
2023-03-27T16:08:23.361Z,24.18
2023-03-27T16:12:24.067Z,24.02
2023-03-27T16:16:23.231Z,23.24
2023-03-27T16:20:23.187Z,22.94
2023-03-27T16:24:23.226Z,23.03
2023-03-27T16:28:23.241Z,23.14
2023-03-27T16:32:23.284Z,23.30
2023-03-27T16:36:23.308Z,23.57
2023-03-27T16:40:23.294Z,23.30
2023-03-27T16:44:23.288Z,23.28
2023-03-27T16:48:23.335Z,23.03
2023-03-27T16:52:23.416Z,22.90
2023-03-27T16:56:23.486Z,22.95
2023-03-27T17:00:23.603Z,23.02
2023-03-27T17:04:23.717Z,22.79
2023-03-27T17:08:23.868Z,22.75
2023-03-27T17:12:24.064Z,22.62
2023-03-27T17:16:24.279Z,22.57
2023-03-27T17:20:24.500Z,22.43
2023-03-27T17:24:24.459Z,22.48
2023-03-27T17:28:24.393Z,22.46
2023-03-27T17:32:24.463Z,22.38
2023-03-27T17:36:36.682Z,22.22
2023-03-27T17:40:25.329Z,22.26
2023-03-27T17:44:24.229Z,22.29
2023-03-27T17:48:24.433Z,22.26
2023-03-27T17:52:24.391Z,22.19
2023-03-27T17:56:24.381Z,22.06
2023-03-27T18:00:24.336Z,22.03
2023-03-27T18:04:24.316Z,22.05
2023-03-27T18:08:24.225Z,21.93
2023-03-27T18:12:24.222Z,21.86
2023-03-27T18:16:24.487Z,21.82
2023-03-27T18:20:24.153Z,21.84
2023-03-27T18:24:24.102Z,21.81
2023-03-27T18:28:24.086Z,21.78
2023-03-27T18:32:24.047Z,21.81
2023-03-27T18:36:23.979Z,21.84
2023-03-27T18:40:23.979Z,21.80
2023-03-27T18:44:23.928Z,21.77
2023-03-27T18:48:23.892Z,21.72
2023-03-27T18:52:23.834Z,21.71
2023-03-27T18:56:23.811Z,21.66
2023-03-27T19:00:23.756Z,21.53
2023-03-27T19:04:23.704Z,21.50
2023-03-27T19:08:23.727Z,21.46
2023-03-27T19:12:23.672Z,21.26
2023-03-27T19:16:23.665Z,21.31
2023-03-27T19:20:23.567Z,21.37
2023-03-27T19:24:23.560Z,21.40
2023-03-27T19:28:23.520Z,21.47
2023-03-27T19:32:23.530Z,21.45
2023-03-27T19:36:23.457Z,21.29
2023-03-27T19:40:23.439Z,21.03
2023-03-27T19:44:23.537Z,20.73
2023-03-27T19:48:23.632Z,20.64
2023-03-27T19:52:23.770Z,20.66
2023-03-27T19:56:23.892Z,20.50
2023-03-27T20:00:24.016Z,20.42
2023-03-27T20:04:24.174Z,20.34
2023-03-27T20:08:24.299Z,20.34
2023-03-27T20:12:24.407Z,20.29
2023-03-27T20:16:24.568Z,20.39
2023-03-27T20:20:24.639Z,20.49
2023-03-27T20:24:24.765Z,20.58
2023-03-27T20:28:24.874Z,20.60
2023-03-27T20:32:25.039Z,20.61
2023-03-27T20:36:25.170Z,20.64
2023-03-27T20:40:25.307Z,20.75
2023-03-27T20:44:25.453Z,20.81
2023-03-27T20:48:25.652Z,20.74
2023-03-27T20:52:25.826Z,20.83
2023-03-27T20:56:26.203Z,21.08
2023-03-27T21:00:26.175Z,21.23
2023-03-27T21:04:26.444Z,21.41
2023-03-27T21:08:26.620Z,21.72
2023-03-27T21:12:26.642Z,21.94
2023-03-27T21:16:26.601Z,22.05
2023-03-27T21:20:26.515Z,22.28
2023-03-27T21:24:26.496Z,22.35
2023-03-27T21:28:26.466Z,22.37
2023-03-27T21:32:26.406Z,22.50
2023-03-27T21:36:29.312Z,22.60
2023-03-27T21:40:26.389Z,22.71
2023-03-27T21:44:26.305Z,22.84
2023-03-27T21:48:26.311Z,22.96
2023-03-27T21:52:26.242Z,23.06
2023-03-27T21:56:26.505Z,23.18
2023-03-27T22:00:26.188Z,23.28
2023-03-27T22:04:26.222Z,23.39
2023-03-27T22:08:26.094Z,23.46
2023-03-27T22:12:26.165Z,23.60
2023-03-27T22:16:26.516Z,23.65
2023-03-27T22:20:26.334Z,23.69
2023-03-27T22:24:26.362Z,23.75
2023-03-27T22:28:26.297Z,23.75
2023-03-27T22:32:26.299Z,23.85
2023-03-27T22:36:26.190Z,23.91
2023-03-27T22:40:26.205Z,23.98
2023-03-27T22:44:26.129Z,24.07
2023-03-27T22:48:26.122Z,24.03
2023-03-27T22:52:26.067Z,24.06
2023-03-27T22:56:26.074Z,24.09
2023-03-27T23:00:26.000Z,24.14
2023-03-27T23:04:26.009Z,24.22
2023-03-27T23:08:26.056Z,24.22
2023-03-27T23:12:25.982Z,24.24
2023-03-27T23:16:26.052Z,24.29
2023-03-27T23:20:25.956Z,24.33
2023-03-27T23:24:25.953Z,24.31
2023-03-27T23:28:25.917Z,24.32
2023-03-27T23:32:25.919Z,24.34
2023-03-27T23:36:25.896Z,24.34
2023-03-27T23:40:25.875Z,24.33
2023-03-27T23:44:25.866Z,24.29
2023-03-27T23:48:25.836Z,24.29
2023-03-27T23:52:25.912Z,24.29
2023-03-27T23:56:25.924Z,24.38
